Time;durP1;ratioP1;P1;durP2;ratioP2;P2;SDS_P1;SDS_P2;PMS_P1;PMS_P2;Temp;Humidity;BMP_temperature;BMP_pressure;BME280_temperature;BME280_humidity;BME280_pressure;Samples;Min_cycle;Max_cycle;Signal;HPM_P1;HPM_P2
2023/04/03 00:01:40;;;;;;;2.50;0.80;;;;;;;;;;5073111;28;20032;-52
2023/04/03 00:04:06;;;;;;;3.80;1.10;;;;;;;;;;5072232;28;20485;-53
2023/04/03 00:06:33;;;;;;;2.03;0.70;;;;;;;;;;5074448;28;20120;-54
2023/04/03 00:08:59;;;;;;;3.05;1.17;;;;;;;;;;5073170;28;20143;-53
2023/04/03 00:11:26;;;;;;;3.38;0.95;;;;;;;;;;5073402;28;20040;-53
2023/04/03 00:13:52;;;;;;;2.08;0.70;;;;;;;;;;5073200;28;20437;-53
2023/04/03 00:16:18;;;;;;;2.72;0.88;;;;;;;;;;5074058;28;20556;-52
2023/04/03 00:18:44;;;;;;;3.13;0.80;;;;;;;;;;5073157;28;20043;-54
2023/04/03 00:21:13;;;;;;;3.00;0.80;;;2.10;99.90;;;;;;5074196;28;20101;-52
2023/04/03 00:23:39;;;;;;;5.05;0.80;;;;;;;;;;5073023;28;20522;-52
2023/04/03 00:26:05;;;;;;;4.07;1.13;;;;;;;;;;5071932;28;20044;-52
2023/04/03 00:28:31;;;;;;;4.32;0.80;;;;;;;;;;5073682;28;20040;-51
2023/04/03 00:30:57;;;;;;;3.83;0.80;;;;;;;;;;5072977;28;20463;-54
2023/04/03 00:33:24;;;;;;;4.28;0.82;;;;;;;;;;5071142;28;20066;-55
2023/04/03 00:35:50;;;;;;;3.47;0.88;;;;;;;;;;5071960;28;20051;-54
2023/04/03 00:38:17;;;;;;;1.90;0.60;;;1.90;99.90;;;;;;5072285;28;20148;-53
2023/04/03 00:40:46;;;;;;;6.95;1.55;;;1.80;99.90;;;;;;5072064;28;20040;-53
2023/04/03 00:43:15;;;;;;;4.93;1.00;;;2.00;99.90;;;;;;5071307;28;20488;-52
2023/04/03 00:45:43;;;;;;;3.33;0.90;;;1.90;99.90;;;;;;5071654;28;20071;-53
2023/04/03 00:48:18;;;;;;;2.72;0.82;;;2.10;99.90;;;;;;5071171;28;20051;-51
2023/04/03 00:50:44;;;;;;;3.97;1.02;;;1.90;99.90;;;;;;5071091;28;20028;-52
2023/04/03 00:53:21;;;;;;;3.30;0.88;;;1.90;99.90;;;;;;5070994;28;20048;-54
2023/04/03 00:55:49;;;;;;;2.22;0.80;;;1.90;99.90;;;;;;5072609;28;20059;-52
2023/04/03 01:06:11;;;;;;;3.10;1.05;;;1.70;99.90;;;;;;5070842;28;20067;-53
2023/04/03 01:08:37;;;;;;;2.38;0.85;;;;;;;;;;5070758;28;20117;-54
2023/04/03 01:11:03;;;;;;;2.88;0.73;;;;;;;;;;5070658;28;20032;-52
2023/04/03 01:13:32;;;;;;;3.67;0.95;;;1.70;99.90;;;;;;5070921;28;20052;-51
2023/04/03 01:16:01;;;;;;;3.90;0.77;;;1.70;99.90;;;;;;5067079;28;20048;-53
2023/04/03 01:18:28;;;;;;;4.63;1.05;;;;;;;;;;5071128;28;20055;-54
2023/04/03 01:21:17;;;;;;;4.57;1.17;;;1.40;99.90;;;;;;5071623;28;20123;-53
2023/04/03 01:24:17;;;;;;;5.68;1.10;;;1.40;99.90;;;;;;5068112;28;20048;-54
2023/04/03 01:26:44;;;;;;;3.72;0.90;;;1.30;99.90;;;;;;5072878;28;20044;-53
2023/04/03 01:29:11;;;;;;;6.30;1.38;;;;;;;;;;5073528;28;21268;-53
2023/04/03 01:31:58;;;;;;;6.50;1.25;;;1.30;99.90;;;;;;5072527;28;20119;-54
2023/04/03 01:34:25;;;;;;;3.13;1.10;;;;;;;;;;5070114;28;20032;-55
2023/04/03 01:36:52;;;;;;;4.20;1.15;;;1.10;99.90;;;;;;5072185;28;20052;-54
2023/04/03 01:39:18;;;;;;;3.45;1.20;;;;;;;;;;5071938;28;20040;-53
2023/04/03 01:41:45;;;;;;;6.00;1.15;;;;;;;;;;5072469;28;20036;-54
2023/04/03 01:44:11;;;;;;;5.80;1.23;;;;;;;;;;5072507;28;20075;-53
2023/04/03 01:46:37;;;;;;;7.68;1.42;;;;;;;;;;5073452;28;20036;-54
2023/04/03 01:49:04;;;;;;;2.67;0.90;;;;;;;;;;5072314;28;20047;-54
2023/04/03 01:51:30;;;;;;;5.55;1.20;;;;;;;;;;5072238;28;20044;-54
2023/04/03 01:53:56;;;;;;;3.10;1.00;;;;;;;;;;5072613;28;20109;-54
2023/04/03 01:56:22;;;;;;;4.93;1.30;;;;;;;;;;5074070;28;20068;-54
2023/04/03 01:58:49;;;;;;;6.05;1.27;;;;;;;;;;5072648;28;20475;-54
2023/04/03 02:01:15;;;;;;;3.60;1.00;;;;;;;;;;5073171;28;20040;-53
2023/04/03 02:03:41;;;;;;;5.88;1.50;;;;;;;;;;5077106;28;20047;-52
2023/04/03 02:06:08;;;;;;;4.25;1.02;;;;;;;;;;5077720;28;20097;-52
2023/04/03 02:08:34;;;;;;;3.85;1.00;;;;;;;;;;5076691;28;20583;-53
2023/04/03 02:11:00;;;;;;;6.43;1.30;;;;;;;;;;5076315;28;20038;-53
2023/04/03 02:13:27;;;;;;;4.30;1.30;;;;;;;;;;5077324;28;20067;-51
2023/04/03 02:15:53;;;;;;;7.38;1.55;;;;;;;;;;5077195;28;20135;-54
2023/04/03 02:18:19;;;;;;;4.38;1.30;;;;;;;;;;5076254;28;20093;-52
2023/04/03 02:20:46;;;;;;;6.50;1.60;;;0.70;99.90;;;;;;5076520;28;20040;-54
2023/04/03 02:23:12;;;;;;;4.65;0.98;;;;;;;;;;5076638;28;20044;-53
2023/04/03 02:25:38;;;;;;;5.93;1.55;;;;;;;;;;5077906;28;20040;-54
2023/04/03 02:28:04;;;;;;;4.88;1.50;;;;;;;;;;5076405;28;20036;-53
2023/04/03 02:30:30;;;;;;;5.18;1.20;;;;;;;;;;5075679;28;20059;-52
2023/04/03 02:32:56;;;;;;;3.30;1.20;;;;;;;;;;5076906;28;20404;-53
2023/04/03 02:35:23;;;;;;;2.95;0.90;;;;;;;;;;5075906;28;20051;-52
2023/04/03 02:37:49;;;;;;;4.90;1.13;;;;;;;;;;5075870;28;20040;-53
2023/04/03 02:40:15;;;;;;;6.50;1.58;;;;;;;;;;5075688;28;20040;-53
2023/04/03 02:42:41;;;;;;;5.65;1.25;;;;;;;;;;5076575;28;20048;-54
2023/04/03 02:45:07;;;;;;;6.03;1.50;;;0.20;99.90;;;;;;5075263;28;20408;-53
2023/04/03 02:47:33;;;;;;;4.50;1.10;;;;;;;;;;5075527;28;20040;-51
2023/04/03 02:49:59;;;;;;;4.63;1.23;;;;;;;;;;5076207;28;20062;-54
2023/04/03 02:52:26;;;;;;;3.92;1.20;;;;;;;;;;5075579;28;20047;-54
2023/04/03 02:54:52;;;;;;;2.90;1.00;;;;;;;;;;5075271;28;20083;-54
2023/04/03 02:57:19;;;;;;;4.53;1.20;;;;;;;;;;5075831;28;20040;-52
2023/04/03 02:59:45;;;;;;;4.03;1.20;;;;;;;;;;5075193;28;20413;-54
2023/04/03 03:02:11;;;;;;;6.53;1.65;;;;;;;;;;5075970;28;20122;-54
2023/04/03 03:04:37;;;;;;;4.88;1.30;;;;;;;;;;5074413;28;20964;-55
2023/04/03 03:07:04;;;;;;;7.47;1.38;;;;;;;;;;5074587;28;20050;-53
2023/04/03 03:09:30;;;;;;;9.73;2.13;;;;;;;;;;5074996;28;20051;-53
2023/04/03 03:11:56;;;;;;;6.25;1.50;;;;;;;;;;5073760;28;20048;-54
2023/04/03 03:14:23;;;;;;;6.35;1.67;;;;;;;;;;5072740;28;20369;-54
2023/04/03 03:16:49;;;;;;;8.25;1.52;;;;;;;;;;5074801;28;20036;-53
2023/04/03 03:19:15;;;;;;;5.55;1.50;;;;;;;;;;5075468;28;20032;-54
2023/04/03 03:21:41;;;;;;;6.90;1.73;;;;;;;;;;5075463;28;20097;-54
2023/04/03 03:24:07;;;;;;;6.30;1.70;;;-0.20;99.90;;;;;;5075498;28;20143;-55
2023/04/03 03:26:33;;;;;;;5.80;1.15;;;;;;;;;;5075655;28;20864;-53
2023/04/03 03:29:00;;;;;;;7.45;1.60;;;;;;;;;;5076223;28;20063;-54
2023/04/03 03:31:26;;;;;;;7.72;1.50;;;;;;;;;;5076268;28;20046;-54
2023/04/03 03:33:52;;;;;;;5.75;2.17;;;;;;;;;;5074950;28;20540;-53
2023/04/03 03:36:18;;;;;;;5.60;1.67;;;;;;;;;;5074032;28;20052;-53
2023/04/03 03:38:44;;;;;;;5.75;1.52;;;;;;;;;;5075964;28;20040;-54
2023/04/03 03:41:10;;;;;;;5.65;1.38;;;;;;;;;;5076178;28;20040;-54
2023/04/03 03:43:36;;;;;;;3.60;1.52;;;;;;;;;;5075174;28;20085;-54
2023/04/03 03:46:02;;;;;;;7.70;1.33;;;;;;;;;;5074943;28;20109;-53
2023/04/03 03:48:28;;;;;;;5.60;1.67;;;;;;;;;;5075502;28;20044;-54
2023/04/03 03:50:55;;;;;;;6.18;1.40;;;;;;;;;;5073844;28;20044;-53
2023/04/03 03:53:21;;;;;;;8.60;2.00;;;;;;;;;;5075045;28;20047;-54
2023/04/03 03:55:47;;;;;;;6.80;1.83;;;;;;;;;;5075525;28;20052;-54
2023/04/03 03:58:13;;;;;;;4.97;2.00;;;;;;;;;;5075369;28;20043;-53
2023/04/03 04:00:39;;;;;;;6.88;1.70;;;;;;;;;;5075412;28;20036;-54
2023/04/03 04:03:05;;;;;;;6.53;1.65;;;;;;;;;;5089468;28;20464;-55
2023/04/03 04:05:31;;;;;;;8.02;1.60;;;;;;;;;;5074361;28;20036;-53
2023/04/03 04:07:57;;;;;;;6.72;1.50;;;;;;;;;;5075973;28;20454;-52
2023/04/03 04:10:23;;;;;;;8.60;2.70;;;;;;;;;;5074841;28;20036;-53
2023/04/03 04:12:51;;;;;;;5.68;2.08;;;;;;;;;;5074696;28;20519;-53
2023/04/03 04:15:17;;;;;;;8.32;1.75;;;;;;;;;;5074856;28;20086;-54
2023/04/03 04:17:43;;;;;;;7.88;1.83;;;;;;;;;;5075627;28;20552;-54
2023/04/03 04:20:10;;;;;;;9.75;2.00;;;;;;;;;;5074089;28;20139;-54
2023/04/03 04:22:37;;;;;;;7.30;1.95;;;;;;;;;;5074620;28;20109;-52
2023/04/03 04:25:03;;;;;;;8.73;2.50;;;-0.50;99.90;;;;;;5073830;28;20044;-53
2023/04/03 04:27:29;;;;;;;8.95;2.22;;;;;;;;;;5075732;28;20047;-54
2023/04/03 04:29:55;;;;;;;4.72;1.50;;;;;;;;;;5074854;28;20050;-53
2023/04/03 04:32:21;;;;;;;10.07;2.40;;;;;;;;;;5074528;28;20051;-53
2023/04/03 04:34:47;;;;;;;7.63;1.90;;;;;;;;;;5072936;28;20364;-54
2023/04/03 04:37:13;;;;;;;8.85;2.60;;;;;;;;;;5074863;28;20124;-52
2023/04/03 04:39:40;;;;;;;6.50;2.03;;;;;;;;;;5073668;28;20042;-54
2023/04/03 04:42:06;;;;;;;7.40;2.03;;;;;;;;;;5074427;28;20166;-53
2023/04/03 04:44:33;;;;;;;9.27;1.95;;;;;;;;;;5073701;28;20059;-54
2023/04/03 04:46:59;;;;;;;7.15;1.90;;;;;;;;;;5074168;28;20463;-51
2023/04/03 04:49:25;;;;;;;9.13;2.28;;;;;;;;;;5073455;28;20364;-52
2023/04/03 04:51:51;;;;;;;7.80;2.05;;;;;;;;;;5073644;28;20092;-53
2023/04/03 04:54:17;;;;;;;6.07;1.95;;;;;;;;;;5073316;28;20059;-52
2023/04/03 04:56:43;;;;;;;6.88;2.38;;;;;;;;;;5075002;28;20265;-53
2023/04/03 04:59:10;;;;;;;7.05;2.40;;;;;;;;;;5073912;28;20432;-53
2023/04/03 05:01:36;;;;;;;9.45;2.33;;;;;;;;;;5073943;28;20075;-53
2023/04/03 05:04:02;;;;;;;6.80;2.08;;;;;;;;;;5074107;28;20120;-53
2023/04/03 05:06:30;;;;;;;11.80;3.78;;;;;;;;;;5074506;28;20634;-54
2023/04/03 05:08:56;;;;;;;10.85;2.88;;;;;;;;;;5072812;28;20408;-51
2023/04/03 05:11:22;;;;;;;9.05;2.20;;;;;;;;;;5074246;28;20036;-53
2023/04/03 05:13:48;;;;;;;9.77;2.20;;;;;;;;;;5073814;28;20048;-52
2023/04/03 05:16:14;;;;;;;8.50;2.15;;;;;;;;;;5073532;28;20059;-52
2023/04/03 05:18:41;;;;;;;11.35;4.10;;;;;;;;;;5072434;28;20413;-54
2023/04/03 05:21:07;;;;;;;7.40;2.33;;;;;;;;;;5073592;28;20051;-53
2023/04/03 05:23:33;;;;;;;7.03;2.45;;;;;;;;;;5072650;28;20032;-54
2023/04/03 05:25:59;;;;;;;9.20;3.67;;;;;;;;;;5073058;28;20040;-54
2023/04/03 05:28:25;;;;;;;11.27;2.45;;;;;;;;;;5073468;28;20223;-54
2023/04/03 05:30:56;;;;;;;7.22;2.42;;;-0.10;99.90;;;;;;5072630;28;20040;-53
2023/04/03 05:33:22;;;;;;;10.60;2.08;;;0.30;99.90;;;;;;5073419;28;20702;-53
2023/04/03 05:35:48;;;;;;;6.28;2.20;;;;;;;;;;5073007;28;20063;-54
2023/04/03 05:38:14;;;;;;;8.88;2.67;;;;;;;;;;5078056;28;20327;-53
2023/04/03 05:40:41;;;;;;;7.13;2.45;;;;;;;;;;5079829;28;20050;-51
2023/04/03 05:43:07;;;;;;;10.07;2.47;;;;;;;;;;5080944;28;20043;-53
2023/04/03 05:45:33;;;;;;;5.57;2.05;;;;;;;;;;5077921;28;20449;-56
2023/04/03 05:47:59;;;;;;;5.07;1.90;;;;;;;;;;5078649;28;20040;-53
2023/04/03 05:50:25;;;;;;;7.15;2.08;;;;;;;;;;5079769;28;20713;-52
2023/04/03 05:52:55;;;;;;;7.10;2.42;;;3.30;99.90;;;;;;5079262;28;20069;-55
2023/04/03 05:55:21;;;;;;;7.25;2.10;;;;;;;;;;5077744;28;20033;-54
2023/04/03 05:57:46;;;;;;;8.07;2.20;;;3.70;99.90;;;;;;5079548;28;20048;-54
2023/04/03 06:00:15;;;;;;;6.40;1.95;;;4.40;99.90;;;;;;5080637;28;20054;-54
2023/04/03 06:02:41;;;;;;;8.13;2.22;;;;;;;;;;5078237;28;20074;-56
2023/04/03 06:05:08;;;;;;;8.18;2.70;;;6.30;99.90;;;;;;5079364;28;20507;-55
2023/04/03 06:07:35;;;;;;;6.72;1.95;;;6.20;99.90;;;;;;5078330;28;20249;-55
2023/04/03 06:10:01;;;;;;;10.15;2.20;;;6.90;99.90;;;;;;5079475;28;20435;-55
2023/04/03 06:12:29;;;;;;;5.45;2.15;;;8.10;99.90;;;;;;5077879;28;20039;-54
2023/04/03 06:14:55;;;;;;;9.27;2.72;;;8.10;99.90;;;;;;5079076;28;20127;-54
2023/04/03 06:17:21;;;;;;;7.82;2.25;;;8.50;99.90;;;;;;5078730;28;20035;-55
2023/04/03 06:19:47;;;;;;;9.27;2.25;;;9.00;99.90;;;;;;5076806;28;20161;-55
2023/04/03 06:22:13;;;;;;;7.90;2.20;;;9.40;99.90;;;;;;5079744;28;20066;-55
2023/04/03 06:24:38;;;;;;;10.15;2.88;;;10.00;99.90;;;;;;5078644;28;20042;-56
2023/04/03 06:27:04;;;;;;;7.53;2.08;;;10.40;99.90;;;;;;5079452;28;20043;-55
2023/04/03 06:29:30;;;;;;;7.95;2.10;;;10.50;99.90;;;;;;5079745;28;20627;-56
2023/04/03 06:31:56;;;;;;;6.28;2.13;;;10.90;99.90;;;;;;5078268;28;20044;-56
2023/04/03 06:34:22;;;;;;;7.38;2.00;;;11.10;99.90;;;;;;5078317;28;20048;-55
2023/04/03 06:36:51;;;;;;;6.70;2.08;;;11.40;99.90;;;;;;5060417;28;20051;-56
2023/04/03 06:39:22;;;;;;;10.10;2.40;;;12.00;99.90;;;;;;5078898;28;21598;-56
2023/04/03 06:41:48;;;;;;;7.93;2.65;;;12.20;99.90;;;;;;5079585;28;20054;-56
2023/04/03 06:44:15;;;;;;;6.30;2.00;;;12.00;99.90;;;;;;5094420;28;20066;-54
2023/04/03 06:46:42;;;;;;;6.28;2.10;;;13.00;99.90;;;;;;5076747;28;20036;-56
2023/04/03 06:49:08;;;;;;;8.65;2.20;;;12.90;99.90;;;;;;5074818;28;20040;-55
2023/04/03 06:51:35;;;;;;;7.30;2.10;;;12.90;99.90;;;;;;5076539;28;20428;-56
2023/04/03 06:54:02;;;;;;;7.10;2.10;;;12.80;99.90;;;;;;5075565;28;20079;-56
2023/04/03 06:56:28;;;;;;;5.63;1.83;;;13.30;99.90;;;;;;5075649;28;20093;-56
2023/04/03 06:58:57;;;;;;;10.50;3.08;;;13.20;99.90;;;;;;5074550;28;20039;-55
2023/04/03 07:01:24;;;;;;;7.22;2.03;;;13.70;99.90;;;;;;5075625;28;20611;-56
2023/04/03 07:03:50;;;;;;;9.63;2.17;;;13.70;99.90;;;;;;5075625;28;20051;-56
2023/04/03 07:06:17;;;;;;;7.50;2.22;;;13.70;99.90;;;;;;5075235;28;20419;-55
2023/04/03 07:08:44;;;;;;;8.43;2.53;;;13.80;99.90;;;;;;5074974;28;20048;-56
2023/04/03 07:11:11;;;;;;;6.18;1.70;;;13.40;99.90;;;;;;5075427;28;24067;-55
2023/04/03 07:13:36;;;;;;;7.32;2.15;;;13.80;99.90;;;;;;5074155;28;20113;-55
2023/04/03 07:16:04;;;;;;;7.40;2.58;;;14.10;99.90;;;;;;5075304;28;20036;-56
2023/04/03 07:18:31;;;;;;;4.55;1.63;;;14.40;99.90;;;;;;5074386;28;20039;-55
2023/04/03 07:20:56;;;;;;;7.25;2.10;;;14.80;99.90;;;;;;5073990;28;20044;-55
2023/04/03 07:23:23;;;;;;;7.05;2.00;;;14.60;99.90;;;;;;5075874;28;20448;-55
2023/04/03 07:25:50;;;;;;;5.88;2.00;;;14.30;99.90;;;;;;5074970;28;20040;-56
2023/04/03 07:28:18;;;;;;;8.63;2.10;;;13.90;99.90;;;;;;5075032;28;20052;-55
2023/04/03 07:30:49;;;;;;;4.55;1.85;;;13.70;99.90;;;;;;5074635;28;20185;-55
2023/04/03 07:33:17;;;;;;;6.32;1.70;;;13.60;99.90;;;;;;5074563;28;20044;-53
2023/04/03 07:35:43;;;;;;;6.78;1.67;;;12.50;99.90;;;;;;5075368;28;20205;-53
2023/04/03 07:38:10;;;;;;;5.18;1.95;;;11.90;99.90;;;;;;5075621;28;20131;-54
2023/04/03 07:40:36;;;;;;;6.63;2.03;;;10.90;99.90;;;;;;5074418;28;20036;-53
2023/04/03 07:43:03;;;;;;;6.82;1.75;;;10.60;99.90;;;;;;5074670;28;20040;-54
2023/04/03 07:45:29;;;;;;;6.13;1.90;;;10.40;99.90;;;;;;5075159;28;20114;-55
2023/04/03 07:47:55;;;;;;;6.53;1.50;;;10.00;99.90;;;;;;5073775;28;20048;-55
2023/04/03 07:50:21;;;;;;;4.60;1.67;;;9.90;99.90;;;;;;5075671;28;20104;-53
2023/04/03 07:52:48;;;;;;;6.20;1.65;;;10.00;99.90;;;;;;5074373;28;20040;-53
2023/04/03 07:55:13;;;;;;;7.63;1.77;;;9.50;99.90;;;;;;5074773;28;20117;-51
2023/04/03 07:57:40;;;;;;;4.60;1.48;;;9.00;99.90;;;;;;5091016;28;20512;-52
2023/04/03 08:00:06;;;;;;;5.63;1.50;;;9.00;99.90;;;;;;5075841;28;20160;-53
2023/04/03 08:02:32;;;;;;;5.50;1.50;;;9.40;99.90;;;;;;5074564;28;20044;-53
2023/04/03 08:04:59;;;;;;;6.50;1.63;;;10.20;99.90;;;;;;5074557;28;20582;-54
2023/04/03 08:07:25;;;;;;;5.10;1.40;;;10.40;99.90;;;;;;5074429;28;20051;-54
2023/04/03 08:09:51;;;;;;;4.20;1.48;;;10.40;99.90;;;;;;5074948;28;20048;-54
2023/04/03 08:12:17;;;;;;;7.22;1.90;;;10.30;99.90;;;;;;5075517;28;20094;-53
2023/04/03 08:14:42;;;;;;;5.82;1.60;;;10.30;99.90;;;;;;5073885;28;20300;-54
2023/04/03 08:17:11;;;;;;;5.82;1.60;;;10.90;99.90;;;;;;5072965;28;20051;-55
2023/04/03 08:19:38;;;;;;;6.13;1.38;;;11.80;99.90;;;;;;5074400;28;20055;-54
2023/04/03 08:22:04;;;;;;;4.38;1.40;;;12.20;99.90;;;;;;5075565;28;20789;-54
2023/04/03 08:24:31;;;;;;;5.65;1.42;;;12.50;99.90;;;;;;5075140;28;20224;-53
2023/04/03 08:26:57;;;;;;;4.03;1.42;;;12.20;99.90;;;;;;5074615;28;20056;-54
2023/04/03 08:29:24;;;;;;;3.50;1.15;;;11.70;99.90;;;;;;5075008;28;20102;-53
2023/04/03 08:31:50;;;;;;;4.72;1.60;;;11.00;99.90;;;;;;5074462;28;20101;-54
2023/04/03 08:34:16;;;;;;;3.88;1.15;;;10.30;99.90;;;;;;5074282;28;20039;-54
2023/04/03 08:36:42;;;;;;;6.05;1.33;;;9.60;99.90;;;;;;5075530;28;20040;-53
2023/04/03 08:39:08;;;;;;;4.30;1.23;;;9.50;99.90;;;;;;5074400;28;20062;-52
2023/04/03 08:41:39;;;;;;;3.83;1.15;;;8.70;99.90;;;;;;5074142;28;20488;-53
2023/04/03 08:44:31;;;;;;;7.32;1.40;;;8.60;99.90;;;;;;5074144;28;20051;-54
2023/04/03 08:47:36;;;;;;;5.32;1.70;;;8.70;99.90;;;;;;5074015;28;20032;-55
2023/04/03 08:50:12;;;;;;;5.30;1.58;;;9.10;99.90;;;;;;5074535;28;20491;-54
2023/04/03 08:52:41;;;;;;;9.90;1.50;;;8.50;99.90;;;;;;5074293;28;20168;-54
2023/04/03 08:55:29;;;;;;;6.65;1.60;;;8.60;99.90;;;;;;5074063;28;20047;-53
2023/04/03 08:58:14;;;;;;;5.05;1.55;;;8.70;99.90;;;;;;5074032;28;20044;-53
2023/04/03 09:00:46;;;;;;;4.57;1.10;;;8.40;99.90;;;;;;5074545;28;20055;-54
2023/04/03 09:03:15;;;;;;;4.78;1.20;;;8.40;99.90;;;;;;5074232;28;20123;-54
2023/04/03 09:05:48;;;;;;;6.05;1.38;;;8.70;99.90;;;;;;5074195;28;20044;-54
2023/04/03 09:08:32;;;;;;;6.03;1.25;;;8.70;99.90;;;;;;5073754;28;20128;-54
2023/04/03 09:11:41;;;;;;;6.25;1.48;;;8.40;99.90;;;;;;5073782;28;20048;-54
2023/04/03 09:14:13;;;;;;;4.57;1.15;;;8.50;99.90;;;;;;5073757;28;20060;-54
2023/04/03 09:16:55;;;;;;;4.18;1.20;;;7.50;99.90;;;;;;5074341;28;20777;-54
2023/04/03 09:19:30;;;;;;;6.25;1.30;;;8.60;99.90;;;;;;5072650;28;20036;-54
2023/04/03 09:22:37;;;;;;;5.38;1.40;;;8.70;99.90;;;;;;5088746;28;20052;-54
2023/04/03 09:25:14;;;;;;;3.13;1.08;;;8.90;99.90;;;;;;5072931;28;20066;-54
2023/04/03 09:27:40;;;;;;;2.70;1.10;;;9.20;99.90;;;;;;5073424;28;20044;-53
2023/04/03 09:30:11;;;;;;;5.20;1.13;;;9.40;99.90;;;;;;5074172;28;20048;-54
2023/04/03 09:32:37;;;;;;;5.20;1.05;;;9.70;99.90;;;;;;5074094;28;20401;-54
2023/04/03 09:35:18;;;;;;;4.55;1.10;;;10.20;99.90;;;;;;5072373;28;20059;-53
2023/04/03 09:37:47;;;;;;;3.28;1.08;;;11.10;99.90;;;;;;5073946;28;20377;-51
2023/04/03 09:40:34;;;;;;;2.40;0.98;;;11.20;99.90;;;;;;5073983;28;20090;-54
2023/04/03 09:43:03;;;;;;;3.97;0.88;;;10.90;99.90;;;;;;5073397;28;20044;-52
2023/04/03 09:45:34;;;;;;;4.45;1.13;;;10.50;99.90;;;;;;5074577;28;20427;-52
2023/04/03 09:48:12;;;;;;;3.38;0.93;;;9.80;99.90;;;;;;5074321;28;20036;-52
2023/04/03 09:50:39;;;;;;;2.67;1.00;;;;;;;;;;5072842;28;20044;-54
2023/04/03 09:53:27;;;;;;;5.18;1.00;;;9.20;99.90;;;;;;5073991;28;20059;-53
2023/04/03 09:55:52;;;;;;;4.05;1.10;;;8.70;99.90;;;;;;5073906;28;20137;-53
2023/04/03 09:58:33;;;;;;;4.93;1.20;;;8.50;99.90;;;;;;5074539;28;20496;-54
2023/04/03 10:01:01;;;;;;;5.43;1.00;;;8.20;99.90;;;;;;5073837;28;20210;-53
2023/04/03 10:03:34;;;;;;;2.28;0.90;;;8.30;99.90;;;;;;5072071;28;20086;-50
2023/04/03 10:06:00;;;;;;;2.70;1.20;;;8.20;99.90;;;;;;5073221;28;20083;-52
2023/04/03 10:08:33;;;;;;;2.78;0.73;;;8.10;99.90;;;;;;5074050;28;20043;-53
2023/04/03 10:11:25;;;;;;;5.03;1.10;;;8.40;99.90;;;;;;5072733;28;20513;-51
2023/04/03 10:14:04;;;;;;;2.67;0.90;;;8.50;99.90;;;;;;5071636;28;20090;-51
2023/04/03 10:16:41;;;;;;;5.03;1.30;;;8.30;99.90;;;;;;5074238;28;20134;-54
2023/04/03 10:19:45;;;;;;;5.15;1.63;;;8.00;99.90;;;;;;5073417;28;20218;-52
2023/04/03 10:22:30;;;;;;;1.45;0.70;;;8.20;99.90;;;;;;5073412;28;20048;-52
2023/04/03 10:25:20;;;;;;;2.58;0.90;;;8.50;99.90;;;;;;5075600;28;20044;-53
2023/04/03 10:28:04;;;;;;;5.25;0.85;;;8.40;99.90;;;;;;5077101;28;20749;-52
2023/04/03 10:30:41;;;;;;;2.42;0.73;;;8.50;99.90;;;;;;5076940;28;20101;-54
2023/04/03 10:33:31;;;;;;;3.40;0.98;;;9.00;99.90;;;;;;5075815;28;20493;-53
2023/04/03 10:36:17;;;;;;;3.42;0.65;;;9.90;99.90;;;;;;5076203;28;20106;-53
2023/04/03 10:38:54;;;;;;;2.88;1.05;;;9.00;99.90;;;;;;5076974;28;20768;-54
2023/04/03 10:41:43;;;;;;;2.53;0.70;;;8.90;99.90;;;;;;5076470;28;20054;-54
2023/04/03 10:44:15;;;;;;;2.05;0.70;;;9.30;99.90;;;;;;5076880;28;20606;-53
2023/04/03 10:46:53;;;;;;;1.60;0.63;;;9.20;99.90;;;;;;5076561;28;20040;-53
2023/04/03 10:49:42;;;;;;;3.97;1.40;;;9.40;99.90;;;;;;5074975;28;20048;-53
2023/04/03 10:52:30;;;;;;;2.97;0.73;;;9.50;99.90;;;;;;5076550;28;20051;-53
2023/04/03 10:55:30;;;;;;;3.85;0.90;;;9.50;99.90;;;;;;5076091;28;20100;-53
2023/04/03 10:57:58;;;;;;;2.70;0.93;;;9.50;99.90;;;;;;5077062;28;20135;-51
2023/04/03 11:00:39;;;;;;;3.75;0.93;;;9.30;99.90;;;;;;5076619;28;20055;-53
2023/04/03 11:03:13;;;;;;;3.42;0.88;;;9.40;99.90;;;;;;5076071;28;20056;-52
2023/04/03 11:05:53;;;;;;;2.17;0.63;;;9.40;99.90;;;;;;5075857;28;20148;-54
2023/04/03 11:08:45;;;;;;;2.75;0.80;;;9.20;99.90;;;;;;5076764;28;20127;-56
2023/04/03 11:11:30;;;;;;;2.45;0.85;;;9.20;99.90;;;;;;5075748;28;20059;-54
2023/04/03 11:14:31;;;;;;;3.30;0.55;;;9.80;99.90;;;;;;5076231;28;20472;-52
2023/04/03 11:17:00;;;;;;;4.25;1.17;;;9.80;99.90;;;;;;5075246;28;20040;-53
2023/04/03 11:19:47;;;;;;;2.63;0.80;;;9.90;99.90;;;;;;5074921;28;20062;-53
2023/04/03 11:22:42;;;;;;;4.53;0.93;;;9.70;99.90;;;;;;5075614;28;20378;-53
2023/04/03 11:25:11;;;;;;;2.38;0.98;;;9.60;99.90;;;;;;5075724;28;20063;-52
2023/04/03 11:27:49;;;;;;;3.45;0.90;;;9.80;99.90;;;;;;5074893;28;20139;-53
2023/04/03 11:30:34;;;;;;;4.68;1.10;;;9.90;99.90;;;;;;5075204;28;20087;-52
2023/04/03 11:33:15;;;;;;;2.75;0.80;;;10.00;99.90;;;;;;5075359;28;20092;-54
2023/04/03 11:35:46;;;;;;;3.25;1.00;;;9.70;99.90;;;;;;5073522;28;20056;-53
2023/04/03 11:38:22;;;;;;;3.80;0.98;;;9.90;99.90;;;;;;5074195;28;20211;-54
2023/04/03 11:40:50;;;;;;;4.88;0.90;;;9.60;99.90;;;;;;5090130;28;20051;-54
2023/04/03 11:43:32;;;;;;;2.33;0.60;;;9.80;99.90;;;;;;5073560;28;20040;-53
2023/04/03 11:46:08;;;;;;;2.92;1.08;;;9.60;99.90;;;;;;5073837;28;20085;-52
2023/04/03 11:48:34;;;;;;;3.75;0.80;;;9.60;99.90;;;;;;5073839;28;20496;-54
2023/04/03 11:51:12;;;;;;;2.28;0.63;;;9.90;99.90;;;;;;5074165;28;20070;-52
2023/04/03 11:53:40;;;;;;;1.92;0.70;;;9.60;99.90;;;;;;5089670;28;20078;-53
2023/04/03 11:56:25;;;;;;;2.28;0.73;;;9.80;99.90;;;;;;5074332;28;20040;-53
2023/04/03 11:59:22;;;;;;;1.90;0.50;;;9.80;99.90;;;;;;5075175;28;20101;-53
2023/04/03 12:01:53;;;;;;;2.58;0.82;;;10.00;99.90;;;;;;5072937;28;20052;-54
2023/04/03 12:04:21;;;;;;;5.95;1.00;;;10.00;99.90;;;;;;5087402;28;20122;-54
2023/04/03 12:06:47;;;;;;;2.35;0.85;;;10.00;99.90;;;;;;5074039;28;20094;-54
2023/04/03 12:09:39;;;;;;;3.30;1.00;;;10.10;99.90;;;;;;5074564;28;20532;-52
2023/04/03 12:12:40;;;;;;;2.92;0.70;;;10.00;99.90;;;;;;5073790;28;20048;-54
2023/04/03 12:15:24;;;;;;;2.63;0.80;;;9.80;99.90;;;;;;5051396;28;20052;-52
2023/04/03 12:17:51;;;;;;;4.32;1.00;;;10.00;99.90;;;;;;5071539;28;20138;-54
2023/04/03 12:20:46;;;;;;;2.95;0.80;;;9.60;99.90;;;;;;5070828;28;20431;-51
2023/04/03 12:23:26;;;;;;;2.80;0.90;;;9.70;99.90;;;;;;5071026;28;20067;-54
2023/04/03 12:25:58;;;;;;;2.92;1.00;;;9.40;99.90;;;;;;5073899;28;20044;-54
2023/04/03 12:28:25;;;;;;;3.13;1.00;;;9.60;99.90;;;;;;5074117;28;20040;-54
2023/04/03 12:30:51;;;;;;;2.80;0.55;;;9.60;99.90;;;;;;5073718;28;20525;-53
2023/04/03 12:33:57;;;;;;;6.88;1.00;;;9.70;99.90;;;;;;5072321;28;20036;-53
2023/04/03 12:36:47;;;;;;;3.60;1.10;;;9.30;99.90;;;;;;5049750;28;20291;-54
2023/04/03 12:39:24;;;;;;;3.05;0.70;;;9.60;99.90;;;;;;5073182;28;20051;-54
2023/04/03 12:42:17;;;;;;;2.20;0.88;;;9.70;99.90;;;;;;5072828;28;20055;-52
2023/04/03 12:44:49;;;;;;;3.00;1.10;;;10.00;99.90;;;;;;5072584;28;20071;-54
2023/04/03 12:47:42;;;;;;;2.25;0.77;;;9.60;99.90;;;;;;5072180;28;20074;-52
2023/04/03 12:50:37;;;;;;;4.10;0.90;;;9.60;99.90;;;;;;5070315;28;20101;-54
2023/04/03 12:53:17;;;;;;;3.63;1.27;;;9.60;99.90;;;;;;5067820;28;20168;-53
2023/04/03 12:55:43;;;;;;;2.75;1.15;;;9.50;99.90;;;;;;5073347;28;20067;-53
2023/04/03 12:58:27;;;;;;;3.72;1.13;;;9.40;99.90;;;;;;5072752;28;20423;-54
2023/04/03 13:01:14;;;;;;;2.28;0.88;;;9.40;99.90;;;;;;5072885;28;20055;-54
2023/04/03 13:03:44;;;;;;;2.28;0.70;;;9.50;99.90;;;;;;5073954;28;20044;-54
2023/04/03 13:06:22;;;;;;;4.82;1.20;;;9.60;99.90;;;;;;5073821;28;20589;-55
2023/04/03 13:09:00;;;;;;;3.28;0.90;;;9.70;99.90;;;;;;5072970;28;20051;-55
2023/04/03 13:11:31;;;;;;;5.00;1.00;;;9.60;99.90;;;;;;5073947;28;20043;-54
2023/04/03 13:14:04;;;;;;;3.15;1.00;;;9.40;99.90;;;;;;5073564;28;20071;-54
2023/04/03 13:16:31;;;;;;;4.80;0.82;;;9.50;99.90;;;;;;5074287;28;20337;-54
2023/04/03 13:18:57;;;;;;;4.57;1.13;;;9.40;99.90;;;;;;5073383;28;20050;-53
2023/04/03 13:21:28;;;;;;;6.03;1.08;;;9.50;99.90;;;;;;5073569;28;20048;-52
2023/04/03 13:23:58;;;;;;;5.03;1.02;;;10.20;99.90;;;;;;5073101;28;20048;-53
2023/04/03 13:26:28;;;;;;;2.38;0.85;;;9.10;99.90;;;;;;5073101;28;20043;-55
2023/04/03 13:28:59;;;;;;;3.85;1.05;;;9.40;99.90;;;;;;5073269;28;20040;-53
2023/04/03 13:31:31;;;;;;;3.65;1.10;;;9.30;99.90;;;;;;5073181;28;20105;-53
2023/04/03 13:34:10;;;;;;;3.28;1.00;;;9.40;99.90;;;;;;5072435;28;20272;-54
2023/04/03 13:36:46;;;;;;;10.70;1.15;;;9.30;99.90;;;;;;5072743;28;20071;-54
2023/04/03 13:39:17;;;;;;;3.97;0.90;;;9.50;99.90;;;;;;5072858;28;20090;-54
2023/04/03 13:41:47;;;;;;;4.10;0.85;;;9.70;99.90;;;;;;5073011;28;21092;-53
2023/04/03 13:44:22;;;;;;;4.05;0.82;;;9.60;99.90;;;;;;5072973;28;20419;-55
2023/04/03 13:46:48;;;;;;;3.53;0.90;;;9.70;99.90;;;;;;5073288;28;20051;-53
2023/04/03 13:49:31;;;;;;;2.80;0.95;;;9.40;99.90;;;;;;5072691;28;20062;-54
2023/04/03 13:51:57;;;;;;;5.43;1.20;;;9.40;99.90;;;;;;5074375;28;20047;-54
2023/04/03 13:54:38;;;;;;;2.05;0.85;;;9.40;99.90;;;;;;5074020;28;20044;-54
2023/04/03 13:57:13;;;;;;;2.15;0.90;;;9.40;99.90;;;;;;5072935;28;20055;-54
2023/04/03 13:59:39;;;;;;;3.65;1.00;;;9.20;99.90;;;;;;5078072;28;20465;-53